createdAt,value
2018-02-22T00:00:24.361Z,-1.60
2018-02-22T00:02:52.362Z,-1.60
2018-02-22T00:05:20.369Z,-1.60
2018-02-22T00:07:49.004Z,-1.60
2018-02-22T00:10:17.016Z,-1.60
2018-02-22T00:12:45.312Z,-1.60
2018-02-22T00:15:13.288Z,-1.60
2018-02-22T00:17:41.303Z,-1.60
2018-02-22T00:20:09.292Z,-1.70
2018-02-22T00:22:37.304Z,-1.70
2018-02-22T00:25:05.316Z,-1.70
2018-02-22T00:27:33.316Z,-1.70
2018-02-22T00:30:02.104Z,-1.70
2018-02-22T00:32:30.110Z,-1.70
2018-02-22T00:34:58.119Z,-1.70
2018-02-22T00:37:26.132Z,-1.80
2018-02-22T00:39:54.132Z,-1.80
2018-02-22T00:42:22.141Z,-1.80
2018-02-22T00:44:50.149Z,-1.80
2018-02-22T00:47:18.159Z,-1.80
2018-02-22T00:49:46.155Z,-1.70
2018-02-22T00:52:14.164Z,-1.80
2018-02-22T00:54:43.376Z,-1.70
2018-02-22T00:57:12.136Z,-1.70
2018-02-22T00:59:40.141Z,-1.80
2018-02-22T01:02:08.133Z,-1.80
2018-02-22T01:04:36.944Z,-1.80
2018-02-22T01:07:05.708Z,-1.90
2018-02-22T01:09:33.733Z,-1.90
2018-02-22T01:12:02.513Z,-1.80
2018-02-22T01:14:31.297Z,-1.90
2018-02-22T01:16:59.317Z,-2.00
2018-02-22T01:19:27.326Z,-1.90
2018-02-22T01:21:55.333Z,-2.00
2018-02-22T01:24:23.352Z,-2.00
2018-02-22T01:26:52.929Z,-2.00
2018-02-22T01:29:20.942Z,-2.00
2018-02-22T01:31:48.939Z,-2.10
2018-02-22T01:34:17.707Z,-2.10
2018-02-22T01:36:45.729Z,-2.10
2018-02-22T01:39:14.500Z,-2.20
2018-02-22T01:41:42.522Z,-2.20
2018-02-22T01:44:10.554Z,-2.20
2018-02-22T01:46:38.556Z,-2.20
2018-02-22T01:49:06.619Z,-2.20
2018-02-22T01:51:35.118Z,-2.20
2018-02-22T01:54:03.149Z,-2.20
2018-02-22T01:56:31.977Z,-2.10
2018-02-22T01:59:00.042Z,-2.20
2018-02-22T02:01:28.844Z,-2.20
2018-02-22T02:03:56.918Z,-2.30
2018-02-22T02:06:26.684Z,-2.10
2018-02-22T02:08:54.752Z,-2.20
2018-02-22T02:11:22.798Z,-2.20
2018-02-22T02:13:50.857Z,-2.20
2018-02-22T02:16:18.913Z,-2.20
2018-02-22T02:18:46.960Z,-2.20
2018-02-22T02:21:15.790Z,-2.20
2018-02-22T02:23:43.829Z,-2.30
2018-02-22T02:26:11.893Z,-2.20
2018-02-22T02:28:39.931Z,-2.20
2018-02-22T02:31:07.982Z,-2.20
2018-02-22T02:33:36.053Z,-2.20
2018-02-22T02:36:04.101Z,-2.30
2018-02-22T02:38:32.160Z,-2.20
2018-02-22T02:41:00.195Z,-2.30
2018-02-22T02:43:28.248Z,-2.40
2018-02-22T02:45:56.294Z,-2.50
2018-02-22T02:48:24.352Z,-2.50
2018-02-22T02:50:52.412Z,-2.50
2018-02-22T02:53:20.452Z,-2.40
2018-02-22T02:55:49.272Z,-2.50
2018-02-22T02:58:17.318Z,-2.60
2018-02-22T03:00:45.385Z,-2.50
2018-02-22T03:03:13.425Z,-2.50
2018-02-22T03:05:41.493Z,-2.50
2018-02-22T03:08:10.318Z,-2.50
2018-02-22T03:10:38.350Z,-2.50
2018-02-22T03:13:06.408Z,-2.50
2018-02-22T03:15:34.441Z,-2.70
2018-02-22T03:18:03.262Z,-2.70
2018-02-22T03:20:31.301Z,-2.70
2018-02-22T03:22:59.361Z,-2.60
2018-02-22T03:25:27.392Z,-2.70
2018-02-22T03:27:56.225Z,-2.70
2018-02-22T03:30:24.272Z,-2.70
2018-02-22T03:32:52.343Z,-2.60
2018-02-22T03:35:20.426Z,-2.60
2018-02-22T03:37:49.274Z,-2.70
2018-02-22T03:40:18.113Z,-2.70
2018-02-22T03:42:46.149Z,-2.70
2018-02-22T03:45:14.216Z,-2.70
2018-02-22T03:47:43.034Z,-2.70
2018-02-22T03:50:11.085Z,-2.70
2018-02-22T03:52:39.144Z,-2.80
2018-02-22T03:55:07.188Z,-2.80
2018-02-22T03:57:35.249Z,-2.80
2018-02-22T04:00:04.049Z,-2.80
2018-02-22T04:02:32.813Z,-2.80
2018-02-22T04:05:01.637Z,-2.80
2018-02-22T04:07:29.704Z,-2.80
2018-02-22T04:09:57.773Z,-2.80
2018-02-22T04:12:25.809Z,-2.90
2018-02-22T04:14:54.633Z,-2.90
2018-02-22T04:17:22.685Z,-2.90
2018-02-22T04:19:51.534Z,-2.90
2018-02-22T04:22:19.561Z,-2.90
2018-02-22T04:24:47.634Z,-2.80
2018-02-22T04:27:15.689Z,-2.80
2018-02-22T04:29:43.733Z,-2.80
2018-02-22T04:32:12.585Z,-2.90
2018-02-22T04:34:40.617Z,-2.90
2018-02-22T04:37:09.441Z,-2.80
2018-02-22T04:39:37.489Z,-2.80
2018-02-22T04:42:05.561Z,-2.80
2018-02-22T04:44:33.628Z,-2.70
2018-02-22T04:47:01.673Z,-2.70
2018-02-22T04:49:29.733Z,-2.60
2018-02-22T04:51:58.541Z,-2.60
2018-02-22T04:54:27.376Z,-2.60
2018-02-22T04:56:55.420Z,-2.70
2018-02-22T04:59:24.363Z,-2.70
2018-02-22T05:01:52.445Z,-2.70
2018-02-22T05:04:20.500Z,-2.70
2018-02-22T05:06:49.317Z,-2.80
2018-02-22T05:09:17.360Z,-2.80
2018-02-22T05:11:45.421Z,-2.80
2018-02-22T05:14:13.517Z,-2.80
2018-02-22T05:16:41.547Z,-2.90
2018-02-22T05:19:10.367Z,-2.90
2018-02-22T05:21:38.419Z,-3.00
2018-02-22T05:24:06.491Z,-2.90
2018-02-22T05:26:34.538Z,-2.90
2018-02-22T05:29:02.603Z,-2.90
2018-02-22T05:31:30.669Z,-2.80
2018-02-22T05:33:58.717Z,-2.90
2018-02-22T05:36:27.137Z,-2.90
2018-02-22T05:38:55.935Z,-2.90
2018-02-22T05:41:24.749Z,-3.00
2018-02-22T05:43:52.804Z,-3.10
2018-02-22T05:46:20.878Z,-3.00
2018-02-22T05:48:48.958Z,-3.00
2018-02-22T05:51:16.997Z,-3.10
2018-02-22T05:53:45.054Z,-3.00
2018-02-22T05:56:13.857Z,-3.00
2018-02-22T05:58:41.910Z,-3.00
2018-02-22T06:01:10.331Z,-3.00
2018-02-22T06:03:38.389Z,-3.00
2018-02-22T06:06:06.444Z,-3.00
2018-02-22T06:08:34.482Z,-3.00
2018-02-22T06:11:03.306Z,-3.00
2018-02-22T06:13:31.361Z,-3.00
2018-02-22T06:15:59.414Z,-3.00
2018-02-22T06:18:27.465Z,-3.00
2018-02-22T06:20:55.525Z,-3.10
2018-02-22T06:23:24.376Z,-3.10
2018-02-22T06:25:52.415Z,-3.20
2018-02-22T06:28:21.237Z,-3.00
2018-02-22T06:30:49.310Z,-3.00
2018-02-22T06:33:18.129Z,-3.00
2018-02-22T06:35:46.165Z,-3.10
2018-02-22T06:38:14.221Z,-3.20
2018-02-22T06:40:43.045Z,-3.00
2018-02-22T06:43:11.096Z,-3.00
2018-02-22T06:45:39.137Z,-3.00
2018-02-22T06:48:07.954Z,-3.00
2018-02-22T06:50:36.001Z,-3.00
2018-02-22T06:53:04.049Z,-2.90
2018-02-22T06:55:32.105Z,-2.80
2018-02-22T06:58:00.179Z,-2.90
2018-02-22T07:00:29.018Z,-2.80
2018-02-22T07:02:57.087Z,-2.80
2018-02-22T07:05:25.141Z,-2.80
2018-02-22T07:07:53.977Z,-2.60
2018-02-22T07:10:22.017Z,-2.80
2018-02-22T07:12:50.856Z,-2.60
2018-02-22T07:15:18.893Z,-2.70
2018-02-22T07:17:46.950Z,-2.60
2018-02-22T07:20:15.759Z,-2.50
2018-02-22T07:22:43.813Z,-2.60
2018-02-22T07:25:11.873Z,-2.60
2018-02-22T07:27:40.747Z,-2.50
2018-02-22T07:30:08.817Z,-2.50
2018-02-22T07:32:36.872Z,-2.40
2018-02-22T07:35:04.947Z,-2.50
2018-02-22T07:37:33.602Z,-2.40
2018-02-22T07:40:01.662Z,-2.40
2018-02-22T07:42:29.713Z,-2.30
2018-02-22T07:44:57.749Z,-2.30
2018-02-22T07:47:26.149Z,-2.30
2018-02-22T07:49:54.180Z,-2.30
2018-02-22T07:52:22.237Z,-2.30
2018-02-22T07:54:50.282Z,-2.30
2018-02-22T07:57:18.324Z,-2.20
2018-02-22T07:59:46.386Z,-2.20
2018-02-22T08:02:15.189Z,-2.00
2018-02-22T08:04:44.014Z,-2.00
2018-02-22T08:07:12.095Z,-2.00
2018-02-22T08:09:40.157Z,-2.00
2018-02-22T08:12:09.625Z,-1.80
2018-02-22T08:14:37.681Z,-1.80
2018-02-22T08:17:05.738Z,-1.70
2018-02-22T08:19:34.540Z,-1.50
2018-02-22T08:22:03.365Z,-1.50
2018-02-22T08:24:31.404Z,-1.50
2018-02-22T08:26:59.460Z,-1.40
2018-02-22T08:29:28.399Z,-1.30
2018-02-22T08:31:56.457Z,-1.20
2018-02-22T08:34:24.512Z,-1.20
2018-02-22T08:36:52.568Z,-1.20
2018-02-22T08:39:21.385Z,-1.10
2018-02-22T08:41:49.435Z,-1.10
2018-02-22T08:44:17.489Z,-1.10
2018-02-22T08:46:45.537Z,-1.00
2018-02-22T08:49:13.598Z,-0.90
2018-02-22T08:51:42.421Z,-0.80
2018-02-22T08:54:10.458Z,-0.90
2018-02-22T08:56:38.513Z,-0.80
2018-02-22T08:59:06.546Z,-0.60
2018-02-22T09:01:35.356Z,-0.60
2018-02-22T09:04:04.161Z,-0.50
2018-02-22T09:06:32.986Z,-0.40
2018-02-22T09:09:01.017Z,-0.50
2018-02-22T09:11:29.080Z,-0.50
2018-02-22T09:13:57.137Z,-0.40
2018-02-22T09:16:25.182Z,-0.40
2018-02-22T09:18:53.237Z,-0.50
2018-02-22T09:21:21.282Z,-0.40
2018-02-22T09:23:49.329Z,-0.40
2018-02-22T09:26:17.369Z,-0.30
2018-02-22T09:28:45.418Z,-0.30
2018-02-22T09:31:14.234Z,0.20
2018-02-22T09:33:42.332Z,0.10
2018-02-22T09:36:10.380Z,0.20
2018-02-22T09:38:39.179Z,0.50
2018-02-22T09:41:09.431Z,0.50
2018-02-22T09:43:41.629Z,0.40
2018-02-22T09:46:20.619Z,0.60
2018-02-22T09:48:48.670Z,0.60
2018-02-22T09:51:16.700Z,0.60
2018-02-22T09:53:45.513Z,0.80
2018-02-22T09:56:14.316Z,0.70
2018-02-22T09:58:43.166Z,0.50
2018-02-22T10:01:11.186Z,0.50
2018-02-22T10:03:39.230Z,0.70
2018-02-22T10:06:07.252Z,0.50
2018-02-22T10:08:35.301Z,0.50
2018-02-22T10:11:03.464Z,0.70
2018-02-22T10:13:31.492Z,0.90
2018-02-22T10:15:59.541Z,1.10
2018-02-22T10:18:27.596Z,1.30
2018-02-22T10:20:55.714Z,1.20
2018-02-22T10:23:23.787Z,1.40
2018-02-22T10:25:51.900Z,1.60
2018-02-22T10:28:19.959Z,1.70
2018-02-22T10:30:48.049Z,1.60
2018-02-22T10:33:16.170Z,1.50
2018-02-22T10:35:44.221Z,1.40
2018-02-22T10:38:12.313Z,1.40
2018-02-22T10:40:40.355Z,1.40
2018-02-22T10:43:09.176Z,1.60
2018-02-22T10:45:37.249Z,1.50
2018-02-22T10:48:05.364Z,1.70
2018-02-22T10:50:33.400Z,2.00
2018-02-22T10:53:02.247Z,1.90
2018-02-22T10:55:30.292Z,1.90
2018-02-22T10:58:05.603Z,3.40
2018-02-22T11:00:39.390Z,2.10
2018-02-22T11:03:07.442Z,2.10
2018-02-22T11:05:35.501Z,2.10
2018-02-22T11:08:03.540Z,2.40
2018-02-22T11:10:31.590Z,2.50
2018-02-22T11:13:00.405Z,2.00
2018-02-22T11:15:29.224Z,2.30
2018-02-22T11:17:57.277Z,2.20
2018-02-22T11:20:25.308Z,2.40
2018-02-22T11:22:53.361Z,2.60
2018-02-22T11:25:21.391Z,2.80
2018-02-22T11:27:49.438Z,2.80
2018-02-22T11:30:17.789Z,2.50
2018-02-22T11:32:45.832Z,2.60
2018-02-22T11:35:13.933Z,2.60
2018-02-22T11:37:41.977Z,2.80
2018-02-22T11:40:10.013Z,2.80
2018-02-22T11:42:38.097Z,2.90
2018-02-22T11:45:06.127Z,3.00
2018-02-22T11:47:34.173Z,2.90
2018-02-22T11:50:02.212Z,3.30
2018-02-22T11:52:30.260Z,3.50
2018-02-22T11:54:58.293Z,3.50
2018-02-22T11:57:26.340Z,3.30
2018-02-22T11:59:54.407Z,3.20
2018-02-22T12:02:23.287Z,3.70
2018-02-22T12:04:51.341Z,3.60
2018-02-22T12:07:19.374Z,3.70
2018-02-22T12:09:48.189Z,3.40
2018-02-22T12:12:16.224Z,3.40
2018-02-22T12:14:44.281Z,3.50
2018-02-22T12:17:12.337Z,3.90
2018-02-22T12:19:41.140Z,4.40
2018-02-22T12:22:10.526Z,4.40
2018-02-22T12:24:38.562Z,4.30
2018-02-22T12:27:06.612Z,4.50
2018-02-22T12:29:35.421Z,4.50
2018-02-22T12:32:04.261Z,4.60
2018-02-22T12:34:32.309Z,4.60
2018-02-22T12:37:01.110Z,3.70
2018-02-22T12:39:29.940Z,3.80
2018-02-22T12:41:57.981Z,3.70
2018-02-22T12:44:26.030Z,4.20
2018-02-22T12:46:54.069Z,4.70
2018-02-22T12:49:22.877Z,4.80
2018-02-22T12:51:50.937Z,4.70
2018-02-22T12:54:18.968Z,5.00
2018-02-22T12:56:47.023Z,4.80
2018-02-22T12:59:15.817Z,4.90
2018-02-22T13:01:44.642Z,4.90
2018-02-22T13:04:12.674Z,4.80
2018-02-22T13:06:40.744Z,5.10
2018-02-22T13:09:08.793Z,4.80
2018-02-22T13:11:36.825Z,5.00
2018-02-22T13:14:04.882Z,5.20
2018-02-22T13:16:32.905Z,5.20
2018-02-22T13:19:00.948Z,5.80
2018-02-22T13:21:28.981Z,5.20
2018-02-22T13:23:57.812Z,4.80
2018-02-22T13:26:25.881Z,4.80
2018-02-22T13:28:54.688Z,4.90
2018-02-22T13:31:23.507Z,5.30
2018-02-22T13:34:03.429Z,5.20
2018-02-22T13:36:32.243Z,5.30
2018-02-22T13:39:08.846Z,5.50
2018-02-22T13:41:36.904Z,5.50
2018-02-22T13:44:17.425Z,5.60
2018-02-22T13:46:45.469Z,5.60
2018-02-22T13:49:26.101Z,6.00
2018-02-22T13:51:54.156Z,5.90
2018-02-22T13:54:22.197Z,6.50
2018-02-22T13:57:02.289Z,6.30
2018-02-22T13:59:30.364Z,6.30
2018-02-22T14:02:10.115Z,6.40
2018-02-22T14:04:38.143Z,6.30
2018-02-22T14:07:06.184Z,5.80
2018-02-22T14:09:34.256Z,6.30
2018-02-22T14:12:02.277Z,5.80
2018-02-22T14:14:30.319Z,6.00
2018-02-22T14:16:58.359Z,5.90
2018-02-22T14:19:26.417Z,5.90
2018-02-22T14:21:54.496Z,5.50
2018-02-22T14:24:22.580Z,5.00
2018-02-22T14:26:51.408Z,5.40
2018-02-22T14:29:19.438Z,5.40
2018-02-22T14:31:47.490Z,5.30
2018-02-22T14:34:15.527Z,5.70
2018-02-22T14:36:44.340Z,5.60
2018-02-22T14:39:12.393Z,5.60
2018-02-22T14:41:40.434Z,5.80
2018-02-22T14:44:08.469Z,5.80
2018-02-22T14:46:37.297Z,6.10
2018-02-22T14:49:05.355Z,6.00
2018-02-22T14:51:33.381Z,6.20
2018-02-22T14:54:01.445Z,5.60
2018-02-22T14:56:29.485Z,5.50
2018-02-22T14:58:57.533Z,5.80
2018-02-22T15:01:25.588Z,6.10
2018-02-22T15:03:54.397Z,6.40
2018-02-22T15:06:23.258Z,6.70
2018-02-22T15:08:51.253Z,6.60
2018-02-22T15:11:19.309Z,6.80
2018-02-22T15:13:47.348Z,6.90
2018-02-22T15:16:16.170Z,6.50
2018-02-22T15:18:44.205Z,6.40
2018-02-22T15:21:12.245Z,6.20
2018-02-22T15:23:40.299Z,6.10
2018-02-22T15:26:09.108Z,6.10
2018-02-22T15:28:37.916Z,6.20
2018-02-22T15:31:05.932Z,6.20
2018-02-22T15:33:33.989Z,6.30
2018-02-22T15:36:02.022Z,6.20
2018-02-22T15:38:30.073Z,6.00
2018-02-22T15:40:58.109Z,5.90
2018-02-22T15:43:26.904Z,6.00
2018-02-22T15:45:55.738Z,5.50
2018-02-22T15:48:23.761Z,5.50
2018-02-22T15:50:51.827Z,4.90
2018-02-22T15:53:19.857Z,4.70
2018-02-22T15:55:48.665Z,4.50
2018-02-22T15:58:17.479Z,4.10
2018-02-22T16:00:45.509Z,4.00
2018-02-22T16:03:13.569Z,3.80
2018-02-22T16:05:41.588Z,3.60
2018-02-22T16:08:09.638Z,3.60
2018-02-22T16:10:38.292Z,3.40
2018-02-22T16:13:06.363Z,3.10
2018-02-22T16:15:34.410Z,3.00
2018-02-22T16:18:02.454Z,2.70
2018-02-22T16:20:31.273Z,2.30
2018-02-22T16:22:59.335Z,2.30
2018-02-22T16:25:28.166Z,2.20
2018-02-22T16:27:56.210Z,2.20
2018-02-22T16:30:24.261Z,2.10
2018-02-22T16:32:52.336Z,2.10
2018-02-22T16:35:20.419Z,2.00
2018-02-22T16:37:48.460Z,1.90
2018-02-22T16:40:17.320Z,1.80
2018-02-22T16:42:45.344Z,1.70
2018-02-22T16:45:14.160Z,1.70
2018-02-22T16:47:42.977Z,1.60
2018-02-22T16:50:11.042Z,1.60
2018-02-22T16:52:39.857Z,1.50
2018-02-22T16:55:07.893Z,1.40
2018-02-22T16:57:35.949Z,1.50
2018-02-22T17:00:04.042Z,1.40
2018-02-22T17:02:33.081Z,1.40
2018-02-22T17:05:01.121Z,1.40
2018-02-22T17:07:29.169Z,1.40
2018-02-22T17:09:58.012Z,1.30
2018-02-22T17:12:26.057Z,1.30
2018-02-22T17:14:54.127Z,1.30
2018-02-22T17:17:33.982Z,1.30
2018-02-22T17:20:02.034Z,1.20
2018-02-22T17:22:30.090Z,1.10
2018-02-22T17:24:59.046Z,1.10
2018-02-22T17:27:32.733Z,1.00
2018-02-22T17:30:06.325Z,1.00
2018-02-22T17:32:33.884Z,1.00
2018-02-22T17:35:01.916Z,1.00
2018-02-22T17:37:39.926Z,1.00
2018-02-22T17:40:19.617Z,1.00
2018-02-22T17:42:47.739Z,0.90
2018-02-22T17:45:15.874Z,0.90
2018-02-22T17:47:44.012Z,1.00
2018-02-22T17:50:12.065Z,0.90
2018-02-22T17:52:40.302Z,0.90
2018-02-22T17:55:08.385Z,0.90
2018-02-22T17:57:36.437Z,0.90
2018-02-22T18:00:05.258Z,0.80
2018-02-22T18:02:33.315Z,0.80
2018-02-22T18:05:02.150Z,0.60
2018-02-22T18:07:30.191Z,0.60
2018-02-22T18:09:59.013Z,0.50
2018-02-22T18:12:27.050Z,0.50
2018-02-22T18:14:55.103Z,0.40
2018-02-22T18:17:23.176Z,0.30
2018-02-22T18:19:51.210Z,0.30
2018-02-22T18:22:22.297Z,1.00
2018-02-22T18:24:50.335Z,0.30
2018-02-22T18:27:19.285Z,0.30
2018-02-22T18:29:47.333Z,0.30
2018-02-22T18:32:27.693Z,0.30
2018-02-22T18:34:55.773Z,0.30
2018-02-22T18:37:29.397Z,0.50
2018-02-22T18:42:53.673Z,0.20
2018-02-22T18:45:22.655Z,0.30
2018-02-22T18:47:51.478Z,0.30
2018-02-22T18:50:20.285Z,0.30
2018-02-22T18:52:48.344Z,0.30
2018-02-22T18:55:16.401Z,0.20
2018-02-22T18:57:44.436Z,0.10
2018-02-22T19:00:12.494Z,0.00
2018-02-22T19:02:40.581Z,0.10
2018-02-22T19:05:09.593Z,0.00
2018-02-22T19:07:38.414Z,0.10
2018-02-22T19:10:06.583Z,0.10
2018-02-22T19:12:35.496Z,0.10
2018-02-22T19:15:03.537Z,0.00
2018-02-22T19:17:31.590Z,0.10
2018-02-22T19:19:59.632Z,0.00
2018-02-22T19:22:28.425Z,0.00
2018-02-22T19:24:56.629Z,0.00
2018-02-22T19:27:24.697Z,0.00
2018-02-22T19:29:52.748Z,0.00
2018-02-22T19:32:20.791Z,0.00
2018-02-22T19:34:49.604Z,0.00
2018-02-22T19:37:17.700Z,-0.10
2018-02-22T19:39:47.284Z,0.00
2018-02-22T19:42:27.077Z,-0.20
2018-02-22T19:44:55.721Z,-0.20
2018-02-22T19:47:23.784Z,-0.20
2018-02-22T19:49:51.869Z,-0.20
2018-02-22T19:52:19.925Z,-0.20
2018-02-22T19:54:48.011Z,-0.20
2018-02-22T19:57:16.804Z,-0.30
2018-02-22T19:59:44.944Z,-0.30
2018-02-22T20:02:13.036Z,-0.20
2018-02-22T20:04:41.870Z,-0.30
2018-02-22T20:07:11.862Z,-0.40
2018-02-22T20:09:40.920Z,-0.40
2018-02-22T20:12:08.985Z,-0.30
2018-02-22T20:14:40.385Z,-0.50
2018-02-22T20:17:09.581Z,-0.50
2018-02-22T20:19:37.640Z,-0.40
2018-02-22T20:22:06.453Z,-0.40
2018-02-22T20:24:34.522Z,-0.50
2018-02-22T20:27:03.378Z,-0.50
2018-02-22T20:29:31.419Z,-0.50
2018-02-22T20:31:59.473Z,-0.50
2018-02-22T20:34:27.525Z,-0.60
2018-02-22T20:36:56.348Z,-0.60
2018-02-22T20:39:24.420Z,-0.70
2018-02-22T20:41:52.490Z,-0.60
2018-02-22T20:44:20.562Z,-0.60
2018-02-22T20:46:48.619Z,-0.60
2018-02-22T20:49:17.442Z,-0.70
2018-02-22T20:51:52.047Z,-0.80
2018-02-22T20:54:20.873Z,-0.60
2018-02-22T20:56:48.944Z,-0.70
2018-02-22T20:59:16.981Z,-0.70
2018-02-22T21:01:45.046Z,-0.60
2018-02-22T21:04:13.073Z,-0.60
2018-02-22T21:06:41.469Z,-0.70
2018-02-22T21:09:10.277Z,-0.80
2018-02-22T21:11:38.340Z,-0.80
2018-02-22T21:14:06.394Z,-0.70
2018-02-22T21:16:34.425Z,-0.80
2018-02-22T21:19:03.249Z,-0.80
2018-02-22T21:21:31.284Z,-0.90
2018-02-22T21:23:59.358Z,-0.90
2018-02-22T21:26:27.431Z,-0.90
2018-02-22T21:28:55.459Z,-0.90
2018-02-22T21:31:24.288Z,-0.90
2018-02-22T21:33:52.331Z,-1.00
2018-02-22T21:36:20.384Z,-1.00
2018-02-22T21:38:48.441Z,-0.90
2018-02-22T21:41:16.476Z,-0.90
2018-02-22T21:43:44.533Z,-0.80
2018-02-22T21:46:12.577Z,-1.00
2018-02-22T21:48:41.400Z,-1.10
2018-02-22T21:51:10.281Z,-1.00
2018-02-22T21:53:39.092Z,-1.00
2018-02-22T21:56:07.148Z,-1.00
2018-02-22T21:58:35.180Z,-1.10
2018-02-22T22:01:03.285Z,-1.10
2018-02-22T22:03:31.334Z,-1.10
2018-02-22T22:05:59.376Z,-1.10
2018-02-22T22:08:27.432Z,-1.10
2018-02-22T22:10:55.485Z,-1.10
2018-02-22T22:13:23.654Z,-1.20
2018-02-22T22:15:52.491Z,-1.20
2018-02-22T22:18:20.513Z,-1.30
2018-02-22T22:20:48.591Z,-1.30
2018-02-22T22:23:16.634Z,-1.30
2018-02-22T22:25:44.685Z,-1.30
2018-02-22T22:28:13.517Z,-1.30
2018-02-22T22:30:41.564Z,-1.40
2018-02-22T22:33:10.455Z,-1.30
2018-02-22T22:35:38.479Z,-1.30
2018-02-22T22:38:06.547Z,-1.40
2018-02-22T22:40:35.401Z,-1.40
2018-02-22T22:43:03.432Z,-1.50
2018-02-22T22:45:31.492Z,-1.40
2018-02-22T22:48:00.078Z,-1.40
2018-02-22T22:50:28.132Z,-1.40
2018-02-22T22:52:56.180Z,-1.50
2018-02-22T22:55:24.994Z,-1.50
2018-02-22T22:57:53.058Z,-1.50
2018-02-22T23:00:22.724Z,-1.50
2018-02-22T23:02:50.762Z,-1.60
2018-02-22T23:05:19.597Z,-1.60
2018-02-22T23:07:47.624Z,-1.70
2018-02-22T23:10:15.685Z,-1.70
2018-02-22T23:12:43.712Z,-1.60
2018-02-22T23:15:12.513Z,-1.60
2018-02-22T23:17:40.586Z,-1.70
2018-02-22T23:20:08.625Z,-1.70
2018-02-22T23:22:36.697Z,-1.70
2018-02-22T23:25:04.768Z,-1.70
2018-02-22T23:27:33.573Z,-1.70
2018-02-22T23:30:01.627Z,-1.80
2018-02-22T23:32:29.660Z,-1.80
2018-02-22T23:34:57.723Z,-1.80
2018-02-22T23:37:25.780Z,-1.80
2018-02-22T23:39:53.812Z,-1.80
2018-02-22T23:42:25.854Z,-1.80
2018-02-22T23:44:54.662Z,-1.90
2018-02-22T23:47:23.493Z,-1.90
2018-02-22T23:49:51.545Z,-2.00
2018-02-22T23:52:20.360Z,-1.90
2018-02-22T23:54:48.421Z,-1.90
2018-02-22T23:57:17.225Z,-2.00
2018-02-22T23:59:46.062Z,-1.90
